Time;durP1;ratioP1;P1;durP2;ratioP2;P2;SDS_P1;SDS_P2;PMS_P1;PMS_P2;Temp;Humidity;BMP_temperature;BMP_pressure;BME280_temperature;BME280_humidity;BME280_pressure;Samples;Min_cycle;Max_cycle;Signal;HPM_P1;HPM_P2
2023/04/15 00:00:17;;;;;;;5.90;2.03;;;10.50;98.30;;;;;;5036356;28;20045;-71
2023/04/15 00:02:47;;;;;;;10.10;2.10;;;10.40;98.40;;;;;;5037360;28;20025;-71
2023/04/15 00:05:22;;;;;;;7.28;1.80;;;10.40;98.40;;;;;;5037453;28;20121;-71
2023/04/15 00:07:50;;;;;;;4.20;1.63;;;10.40;98.70;;;;;;5031749;28;20577;-72
2023/04/15 00:10:16;;;;;;;8.73;1.42;;;10.30;98.60;;;;;;5038693;28;20041;-71
2023/04/15 00:12:44;;;;;;;5.43;1.60;;;10.30;98.60;;;;;;5039890;28;20029;-70
2023/04/15 00:15:16;;;;;;;3.15;1.40;;;10.30;99.00;;;;;;5036412;28;20060;-70
2023/04/15 00:17:44;;;;;;;6.38;1.40;;;10.30;99.00;;;;;;5035580;28;20029;-70
2023/04/15 00:20:10;;;;;;;6.07;1.92;;;10.20;99.20;;;;;;5036584;28;20040;-70
2023/04/15 00:22:48;;;;;;;2.75;1.40;;;10.20;99.50;;;;;;5038683;28;20401;-70
2023/04/15 00:25:16;;;;;;;10.20;1.90;;;10.20;99.60;;;;;;5037570;28;20045;-69
2023/04/15 00:27:42;;;;;;;9.45;2.78;;;10.10;99.80;;;;;;5036025;28;20025;-71
2023/04/15 00:30:08;;;;;;;6.50;2.47;;;10.10;99.90;;;;;;5036274;28;20030;-70
2023/04/15 00:32:36;;;;;;;7.60;1.88;;;10.00;99.90;;;;;;5037726;28;20128;-71
2023/04/15 00:35:02;;;;;;;6.25;2.40;;;10.00;99.90;;;;;;5035770;28;20032;-71
2023/04/15 00:37:28;;;;;;;6.50;1.48;;;10.00;99.90;;;;;;5037161;28;20029;-69
2023/04/15 00:39:54;;;;;;;5.13;1.95;;;10.00;99.90;;;;;;5033121;28;20060;-73
2023/04/15 00:42:20;;;;;;;5.78;1.98;;;9.90;99.90;;;;;;5038444;28;20033;-70
2023/04/15 00:44:46;;;;;;;7.18;2.95;;;9.90;99.90;;;;;;5036503;28;20033;-71
2023/04/15 00:47:12;;;;;;;8.55;1.73;;;10.00;99.90;;;;;;5036765;28;20048;-69
2023/04/15 00:49:41;;;;;;;5.03;1.88;;;9.90;99.90;;;;;;5042855;28;20052;-73
2023/04/15 00:52:09;;;;;;;8.30;1.73;;;9.80;99.90;;;;;;5034512;28;20095;-71
2023/04/15 00:54:35;;;;;;;7.60;1.80;;;9.80;99.90;;;;;;5037954;28;20040;-71
2023/04/15 00:57:00;;;;;;;5.13;2.22;;;9.80;99.90;;;;;;5030199;28;20390;-71
2023/04/15 00:59:27;;;;;;;6.22;2.67;;;9.80;99.90;;;;;;5033413;28;20029;-71
2023/04/15 01:01:53;;;;;;;6.80;2.40;;;9.80;99.90;;;;;;5038361;28;20029;-72
2023/04/15 01:04:18;;;;;;;10.60;2.85;;;9.80;99.90;;;;;;5039696;28;20049;-71
2023/04/15 01:06:47;;;;;;;3.83;2.17;;;9.80;99.90;;;;;;5035208;28;20036;-71
2023/04/15 01:09:13;;;;;;;3.97;1.80;;;9.80;99.90;;;;;;5037128;28;20029;-71
2023/04/15 01:11:41;;;;;;;4.07;1.92;;;9.80;99.90;;;;;;5036703;28;20047;-71
2023/04/15 01:14:09;;;;;;;4.82;2.00;;;9.80;99.90;;;;;;5034437;28;20083;-71
2023/04/15 01:16:38;;;;;;;6.10;2.33;;;9.70;99.90;;;;;;5033823;28;20041;-70
2023/04/15 01:19:07;;;;;;;6.70;2.13;;;9.60;99.90;;;;;;5032293;28;20058;-70
2023/04/15 01:21:37;;;;;;;7.85;2.10;;;9.60;99.90;;;;;;5037046;28;20037;-70
2023/04/15 01:24:10;;;;;;;7.13;1.90;;;9.60;99.90;;;;;;5033129;28;20041;-71
2023/04/15 01:26:39;;;;;;;5.70;1.58;;;9.50;99.90;;;;;;5039377;28;20037;-72
2023/04/15 01:29:05;;;;;;;4.03;1.57;;;9.50;99.90;;;;;;5034797;28;20045;-70
2023/04/15 01:31:31;;;;;;;8.25;2.92;;;9.40;99.90;;;;;;5032793;28;20280;-69
2023/04/15 01:33:58;;;;;;;6.70;1.70;;;9.40;99.90;;;;;;5034265;28;20053;-71
2023/04/15 01:36:26;;;;;;;6.07;1.80;;;9.40;99.90;;;;;;5038820;28;20500;-70
2023/04/15 01:38:53;;;;;;;7.05;2.10;;;9.30;99.90;;;;;;5034261;28;20038;-72
2023/04/15 01:41:27;;;;;;;3.67;1.58;;;9.20;99.90;;;;;;5038584;28;20677;-70
2023/04/15 01:43:53;;;;;;;5.07;1.80;;;9.10;99.90;;;;;;5032604;28;20045;-71
2023/04/15 01:46:25;;;;;;;4.60;1.88;;;9.20;99.90;;;;;;5036806;28;20116;-71
2023/04/15 01:48:56;;;;;;;7.07;1.60;;;9.10;99.90;;;;;;5039420;28;20037;-71
2023/04/15 01:51:22;;;;;;;7.43;1.73;;;9.20;99.90;;;;;;5033128;28;20087;-71
2023/04/15 01:53:48;;;;;;;6.13;2.00;;;9.20;99.90;;;;;;5033549;28;20761;-71
2023/04/15 01:56:13;;;;;;;3.95;1.48;;;9.30;99.90;;;;;;5035572;28;20132;-70
2023/04/15 01:58:42;;;;;;;7.30;3.22;;;9.20;99.90;;;;;;5036315;28;20048;-70
2023/04/15 02:01:20;;;;;;;4.10;1.92;;;9.20;99.90;;;;;;5026641;28;20033;-71
2023/04/15 02:03:46;;;;;;;5.30;1.80;;;9.10;99.90;;;;;;5031833;28;20050;-71
2023/04/15 02:06:12;;;;;;;4.75;1.75;;;9.10;99.90;;;;;;5028242;28;20059;-69
2023/04/15 02:08:37;;;;;;;4.18;1.77;;;9.00;99.90;;;;;;5031252;28;20087;-71
2023/04/15 02:11:03;;;;;;;6.13;1.80;;;8.90;99.90;;;;;;5040204;28;20028;-71
2023/04/15 02:13:29;;;;;;;4.45;1.70;;;8.90;99.90;;;;;;5034281;28;20040;-71
2023/04/15 02:15:55;;;;;;;3.83;1.60;;;8.80;99.90;;;;;;5031986;28;20038;-71
2023/04/15 02:18:20;;;;;;;3.47;1.35;;;8.80;99.90;;;;;;5030093;28;20571;-72
2023/04/15 02:20:47;;;;;;;6.43;1.73;;;8.80;99.90;;;;;;5029320;28;20037;-71
2023/04/15 02:23:15;;;;;;;6.40;2.03;;;8.80;99.90;;;;;;5066399;28;20434;-71
2023/04/15 02:25:44;;;;;;;3.65;1.77;;;8.70;99.90;;;;;;5034654;28;20045;-72
2023/04/15 02:28:16;;;;;;;4.07;1.70;;;8.60;99.90;;;;;;5033405;28;20048;-72
2023/04/15 02:30:41;;;;;;;16.13;2.92;;;8.60;99.90;;;;;;5036381;28;20112;-72
2023/04/15 02:33:07;;;;;;;14.07;2.90;;;8.60;99.90;;;;;;5026122;28;20160;-72
2023/04/15 02:35:32;;;;;;;5.38;1.63;;;8.60;99.90;;;;;;5033489;28;20057;-71
2023/04/15 02:37:58;;;;;;;4.90;2.08;;;8.60;99.90;;;;;;5035453;28;20036;-72
2023/04/15 02:40:24;;;;;;;6.35;1.83;;;8.60;99.90;;;;;;5032801;28;20041;-72
2023/04/15 02:42:49;;;;;;;4.13;2.17;;;8.60;99.90;;;;;;5033890;28;20524;-72
2023/04/15 02:45:24;;;;;;;6.88;1.83;;;8.60;99.90;;;;;;5033201;28;20041;-71
2023/04/15 02:47:50;;;;;;;11.07;2.63;;;8.60;99.90;;;;;;5032056;28;20090;-72
2023/04/15 02:50:16;;;;;;;8.35;2.72;;;8.60;99.90;;;;;;5036361;28;20509;-70
2023/04/15 02:52:45;;;;;;;5.32;1.85;;;8.60;99.90;;;;;;5031893;28;20032;-72
2023/04/15 02:55:16;;;;;;;5.50;2.40;;;8.60;99.90;;;;;;5032414;28;20095;-71
2023/04/15 02:57:42;;;;;;;6.65;2.60;;;8.50;99.90;;;;;;5033761;28;20067;-72
2023/04/15 03:00:10;;;;;;;4.03;2.42;;;8.40;99.90;;;;;;5035347;28;20037;-70
2023/04/15 03:02:37;;;;;;;5.47;2.72;;;8.40;99.90;;;;;;5035299;28;20489;-72
2023/04/15 03:05:04;;;;;;;4.07;1.75;;;8.40;99.90;;;;;;5035093;28;20049;-72
2023/04/15 03:07:30;;;;;;;5.60;2.85;;;8.40;99.90;;;;;;5033948;28;20084;-72
2023/04/15 03:09:56;;;;;;;5.80;2.38;;;8.40;99.90;;;;;;5033103;28;20025;-72
2023/04/15 03:12:24;;;;;;;6.80;2.33;;;8.30;99.90;;;;;;5037512;28;20498;-71
2023/04/15 03:14:50;;;;;;;5.72;2.30;;;8.20;99.90;;;;;;5032162;28;20080;-72
2023/04/15 03:17:18;;;;;;;5.55;2.42;;;8.30;99.90;;;;;;5030563;28;20036;-71
2023/04/15 03:19:44;;;;;;;5.82;2.33;;;8.20;99.90;;;;;;5034683;28;20084;-71
2023/04/15 03:22:10;;;;;;;7.35;1.95;;;8.20;99.90;;;;;;5029147;28;20029;-70
2023/04/15 03:24:35;;;;;;;4.85;2.28;;;8.10;99.90;;;;;;5033189;28;20071;-70
2023/04/15 03:27:01;;;;;;;6.22;2.20;;;8.10;99.90;;;;;;5034240;28;20033;-72
2023/04/15 03:29:26;;;;;;;8.82;2.53;;;8.00;99.90;;;;;;5037939;28;20034;-72
2023/04/15 03:31:52;;;;;;;7.78;2.38;;;8.00;99.90;;;;;;5032704;28;20044;-71
2023/04/15 03:34:18;;;;;;;7.20;2.15;;;7.90;99.90;;;;;;5032503;28;20042;-70
2023/04/15 03:36:45;;;;;;;7.30;1.90;;;7.90;99.90;;;;;;5030538;28;20029;-71
2023/04/15 03:39:13;;;;;;;8.43;2.30;;;7.90;99.90;;;;;;5031636;28;20539;-71
2023/04/15 03:41:39;;;;;;;5.97;3.22;;;7.90;99.90;;;;;;5035566;28;20030;-71
2023/04/15 03:44:05;;;;;;;4.30;2.60;;;7.90;99.90;;;;;;5032031;28;20033;-69
2023/04/15 03:46:33;;;;;;;4.95;2.53;;;7.80;99.90;;;;;;5034689;28;20037;-70
2023/04/15 03:48:59;;;;;;;6.55;2.45;;;7.80;99.90;;;;;;5040954;28;20470;-69
2023/04/15 03:51:25;;;;;;;5.38;2.45;;;7.80;99.90;;;;;;5037083;28;20144;-70
2023/04/15 03:53:50;;;;;;;5.18;2.58;;;7.70;99.90;;;;;;5038300;28;20039;-72
2023/04/15 03:56:16;;;;;;;7.78;2.42;;;7.70;99.90;;;;;;5034953;28;20478;-70
2023/04/15 03:58:42;;;;;;;6.85;2.53;;;7.70;99.90;;;;;;5036152;28;20029;-70
2023/04/15 04:01:10;;;;;;;4.82;2.60;;;7.70;99.90;;;;;;5038498;28;20095;-71
2023/04/15 04:03:41;;;;;;;5.88;2.30;;;7.70;99.90;;;;;;5038804;28;20468;-70
2023/04/15 04:06:07;;;;;;;5.25;2.88;;;7.70;99.90;;;;;;5039824;28;20044;-70
2023/04/15 04:08:33;;;;;;;6.28;2.20;;;7.60;99.90;;;;;;5041653;28;20033;-70
2023/04/15 04:10:59;;;;;;;6.93;2.40;;;7.60;99.90;;;;;;5037554;28;20074;-71
2023/04/15 04:13:24;;;;;;;4.25;2.20;;;7.60;99.90;;;;;;5036670;28;20037;-70
2023/04/15 04:15:53;;;;;;;10.63;2.13;;;7.50;99.90;;;;;;5039625;28;20493;-71
2023/04/15 04:18:18;;;;;;;5.40;1.95;;;7.50;99.90;;;;;;5033019;28;20041;-71
2023/04/15 04:20:47;;;;;;;5.75;2.70;;;7.50;99.90;;;;;;5037868;28;20090;-70
2023/04/15 04:23:12;;;;;;;5.43;2.53;;;7.50;99.90;;;;;;5035856;28;20045;-70
2023/04/15 04:25:38;;;;;;;7.10;2.67;;;7.50;99.90;;;;;;5038323;28;20043;-70
2023/04/15 04:28:06;;;;;;;6.97;2.47;;;7.50;99.90;;;;;;5038680;28;20040;-71
2023/04/15 04:30:35;;;;;;;8.15;2.53;;;7.50;99.90;;;;;;5036965;28;20080;-71
2023/04/15 04:33:04;;;;;;;15.95;3.58;;;7.50;99.90;;;;;;5038498;28;20049;-71
2023/04/15 04:35:29;;;;;;;6.88;2.75;;;7.40;99.90;;;;;;5036485;28;20029;-70
2023/04/15 04:37:55;;;;;;;5.70;2.40;;;7.40;99.90;;;;;;5041019;28;20044;-71
2023/04/15 04:40:27;;;;;;;7.10;3.08;;;7.40;99.90;;;;;;5035836;28;20033;-69
2023/04/15 04:42:53;;;;;;;8.48;2.60;;;7.40;99.90;;;;;;5039248;28;20043;-70
2023/04/15 04:45:19;;;;;;;10.40;3.03;;;7.40;99.90;;;;;;5036734;28;20087;-70
2023/04/15 04:47:45;;;;;;;5.72;2.80;;;7.40;99.90;;;;;;5038904;28;20033;-71
2023/04/15 04:50:11;;;;;;;4.95;2.72;;;7.30;99.90;;;;;;5036389;28;20033;-70
2023/04/15 04:52:42;;;;;;;6.55;2.72;;;7.20;99.90;;;;;;5038034;28;20033;-69
2023/04/15 04:55:08;;;;;;;4.13;2.28;;;7.20;99.90;;;;;;5035121;28;20037;-70
2023/04/15 04:57:40;;;;;;;5.85;2.53;;;7.20;99.90;;;;;;5033182;28;20085;-70
2023/04/15 05:00:12;;;;;;;9.50;3.58;;;7.20;99.90;;;;;;5037490;28;20033;-70
2023/04/15 05:02:37;;;;;;;6.85;2.72;;;7.20;99.90;;;;;;5038610;28;20025;-70
2023/04/15 05:05:06;;;;;;;6.55;2.78;;;7.20;99.90;;;;;;5035514;28;20037;-71
2023/04/15 05:07:32;;;;;;;8.20;2.78;;;7.10;99.90;;;;;;5036092;28;20532;-70
2023/04/15 05:10:01;;;;;;;7.18;2.97;;;7.10;99.90;;;;;;5035883;28;20064;-70
2023/04/15 05:12:26;;;;;;;7.78;2.97;;;7.10;99.90;;;;;;5036828;28;20080;-71
2023/04/15 05:14:52;;;;;;;7.03;3.13;;;7.10;99.90;;;;;;5033919;28;20037;-70
2023/04/15 05:17:17;;;;;;;7.18;3.08;;;7.10;99.90;;;;;;5037623;28;20497;-70
2023/04/15 05:19:46;;;;;;;4.63;2.63;;;7.10;99.90;;;;;;5035212;28;20033;-71
2023/04/15 05:22:11;;;;;;;8.48;3.40;;;7.10;99.90;;;;;;5034425;28;20043;-70
2023/04/15 05:24:37;;;;;;;6.82;2.78;;;7.10;99.90;;;;;;5037665;28;20033;-70
2023/04/15 05:27:03;;;;;;;9.00;3.25;;;7.10;99.90;;;;;;5034794;28;20068;-70
2023/04/15 05:29:29;;;;;;;6.25;2.97;;;7.10;99.90;;;;;;5037819;28;20136;-70
2023/04/15 05:31:55;;;;;;;5.60;2.85;;;7.10;99.90;;;;;;5034571;28;20112;-69
2023/04/15 05:34:21;;;;;;;4.82;2.80;;;7.10;99.90;;;;;;5039785;28;20033;-71
2023/04/15 05:36:46;;;;;;;5.47;3.00;;;7.10;99.90;;;;;;5039062;28;20719;-70
2023/04/15 05:39:15;;;;;;;5.63;2.65;;;7.10;99.90;;;;;;5035413;28;20033;-70
2023/04/15 05:41:43;;;;;;;4.95;2.75;;;7.10;99.90;;;;;;5034988;28;20033;-71
2023/04/15 05:44:12;;;;;;;6.25;2.63;;;7.10;99.90;;;;;;5033990;28;20597;-71
2023/04/15 05:46:37;;;;;;;5.72;3.15;;;7.20;99.90;;;;;;5039891;28;20032;-70
2023/04/15 05:49:03;;;;;;;6.55;2.50;;;7.60;99.90;;;;;;5036507;28;20029;-71
2023/04/15 05:51:29;;;;;;;11.27;2.78;;;8.30;99.90;;;;;;5034967;28;20549;-71
2023/04/15 05:53:54;;;;;;;4.75;1.70;;;9.20;99.90;;;;;;5034947;28;20482;-70
2023/04/15 05:56:21;;;;;;;5.25;2.35;;;10.20;99.90;;;;;;5032074;28;20047;-70
2023/04/15 05:58:46;;;;;;;3.42;1.90;;;10.90;99.90;;;;;;5039796;28;20575;-70
2023/04/15 06:01:18;;;;;;;4.18;1.85;;;11.70;99.90;;;;;;5035426;28;20036;-69
2023/04/15 06:03:43;;;;;;;6.68;1.73;;;12.70;99.90;;;;;;5034365;28;20099;-70
2023/04/15 06:06:09;;;;;;;4.20;1.50;;;13.40;99.90;;;;;;5033958;28;20037;-72
2023/04/15 06:08:35;;;;;;;4.40;1.85;;;14.10;99.90;;;;;;5034997;28;20052;-70
2023/04/15 06:11:01;;;;;;;4.32;1.65;;;14.40;99.90;;;;;;5033760;28;20099;-71
2023/04/15 06:13:26;;;;;;;2.63;1.65;;;14.90;99.50;;;;;;5035976;28;20087;-72
2023/04/15 06:15:52;;;;;;;6.28;1.92;;;15.40;99.40;;;;;;5033354;28;20025;-72
2023/04/15 06:18:19;;;;;;;3.50;1.85;;;15.70;98.40;;;;;;5036394;28;20041;-70
2023/04/15 06:20:45;;;;;;;4.63;1.45;;;15.80;98.50;;;;;;5031939;28;20047;-69
2023/04/15 06:23:11;;;;;;;6.68;2.00;;;16.40;97.10;;;;;;5029782;28;20091;-70
2023/04/15 06:25:36;;;;;;;3.95;1.65;;;16.30;96.80;;;;;;5027793;28;20042;-72
2023/04/15 06:28:02;;;;;;;2.63;1.50;;;16.60;96.80;;;;;;5029378;28;20246;-71
2023/04/15 06:30:27;;;;;;;4.60;1.85;;;17.00;96.50;;;;;;5029442;28;20037;-72
2023/04/15 06:32:54;;;;;;;3.83;1.60;;;16.90;96.10;;;;;;5034018;28;20043;-70
2023/04/15 06:35:20;;;;;;;6.22;2.08;;;16.60;97.10;;;;;;5034894;28;20065;-70
2023/04/15 06:37:45;;;;;;;4.05;1.85;;;16.50;96.60;;;;;;5032880;28;20397;-72
2023/04/15 06:40:14;;;;;;;8.05;1.92;;;16.90;96.50;;;;;;5029048;28;20057;-71
2023/04/15 06:42:43;;;;;;;3.03;1.50;;;17.10;96.00;;;;;;5032455;28;20046;-71
2023/04/15 06:45:11;;;;;;;3.90;2.10;;;17.50;95.90;;;;;;5031346;28;20068;-71
2023/04/15 06:47:37;;;;;;;2.75;1.58;;;17.70;95.40;;;;;;5029980;28;20037;-70
2023/04/15 06:50:09;;;;;;;4.95;1.83;;;18.00;94.70;;;;;;5036361;28;20029;-71
2023/04/15 06:52:35;;;;;;;3.05;1.77;;;17.90;94.70;;;;;;5030839;28;20041;-71
2023/04/15 06:55:01;;;;;;;2.72;1.75;;;18.00;94.50;;;;;;5035062;28;20048;-70
2023/04/15 06:57:27;;;;;;;2.35;1.80;;;17.60;94.60;;;;;;5034969;28;20108;-70
2023/04/15 06:59:53;;;;;;;4.05;2.10;;;17.40;94.90;;;;;;5032730;28;20029;-72
2023/04/15 07:02:19;;;;;;;4.25;2.38;;;16.70;95.70;;;;;;5032034;28;20087;-70
2023/04/15 07:04:45;;;;;;;5.05;2.03;;;16.10;96.30;;;;;;5028844;28;20041;-70
2023/04/15 07:07:14;;;;;;;3.90;1.98;;;15.50;97.10;;;;;;5033783;28;20036;-70
2023/04/15 07:09:40;;;;;;;4.93;2.40;;;15.10;97.70;;;;;;5034069;28;20038;-71
2023/04/15 07:12:06;;;;;;;5.30;2.10;;;14.50;98.50;;;;;;5031109;28;20029;-72
2023/04/15 07:14:31;;;;;;;4.30;2.33;;;14.00;99.40;;;;;;5029576;28;20056;-71
2023/04/15 07:16:57;;;;;;;5.45;2.72;;;13.50;99.90;;;;;;5034908;28;20152;-72
2023/04/15 07:19:22;;;;;;;4.97;2.47;;;13.20;99.90;;;;;;5033844;28;20128;-71
2023/04/15 07:21:54;;;;;;;6.30;3.00;;;13.00;99.90;;;;;;5035550;28;20045;-72
2023/04/15 07:24:26;;;;;;;6.15;2.67;;;12.80;99.90;;;;;;5032608;28;20052;-71
2023/04/15 07:27:03;;;;;;;5.25;2.63;;;12.80;99.90;;;;;;5035693;28;20048;-71
2023/04/15 07:29:44;;;;;;;7.88;2.70;;;12.70;99.90;;;;;;5033759;28;20036;-69
2023/04/15 07:32:12;;;;;;;;;;;12.70;99.90;;;;;;5036169;28;20409;-69
2023/04/15 07:34:38;;;;;;;6.95;2.63;;;12.70;99.90;;;;;;5036202;28;19916;-70
2023/04/15 07:37:06;;;;;;;6.80;2.95;;;12.70;99.90;;;;;;5035734;28;20032;-69
2023/04/15 07:39:32;;;;;;;7.03;2.85;;;12.80;99.90;;;;;;5033035;28;20503;-70
2023/04/15 07:42:01;;;;;;;4.32;1.88;;;12.90;99.90;;;;;;5036420;28;20033;-70
2023/04/15 07:44:35;;;;;;;4.68;2.20;;;12.80;99.90;;;;;;5034979;28;20604;-71
2023/04/15 07:47:04;;;;;;;4.05;1.80;;;12.80;99.90;;;;;;5036597;28;20032;-70
2023/04/15 07:49:30;;;;;;;5.18;2.05;;;12.80;99.90;;;;;;5034945;28;20047;-69
2023/04/15 07:51:56;;;;;;;3.25;1.48;;;12.80;99.90;;;;;;5034047;28;20048;-70
2023/04/15 07:54:25;;;;;;;3.40;1.80;;;13.00;99.90;;;;;;5035122;28;20090;-71
2023/04/15 07:56:53;;;;;;;6.93;2.15;;;13.10;99.90;;;;;;5032529;28;20510;-73
2023/04/15 07:59:19;;;;;;;3.58;1.60;;;13.10;99.90;;;;;;5039213;28;20124;-74
2023/04/15 08:01:48;;;;;;;5.10;1.75;;;13.10;99.90;;;;;;5037340;28;20116;-73
2023/04/15 08:04:14;;;;;;;2.90;1.65;;;13.10;99.90;;;;;;5033023;28;20071;-70
2023/04/15 08:06:40;;;;;;;3.10;1.63;;;13.00;99.90;;;;;;5038051;28;20493;-72
2023/04/15 08:09:08;;;;;;;3.92;1.98;;;13.10;99.90;;;;;;5034629;28;20386;-72
2023/04/15 08:11:35;;;;;;;4.03;1.98;;;13.20;99.90;;;;;;5034161;28;20493;-69
2023/04/15 08:14:13;;;;;;;4.13;1.98;;;13.10;99.90;;;;;;5038996;28;20469;-74
2023/04/15 08:16:48;;;;;;;6.72;1.88;;;13.10;99.90;;;;;;5035437;28;20116;-72
2023/04/15 08:19:20;;;;;;;5.72;2.03;;;13.10;99.90;;;;;;5032062;28;20033;-72
2023/04/15 08:21:45;;;;;;;5.93;2.00;;;13.20;99.90;;;;;;5033226;28;20088;-72
2023/04/15 08:24:11;;;;;;;5.60;1.75;;;13.30;99.90;;;;;;5033949;28;20041;-72
2023/04/15 08:26:37;;;;;;;5.15;2.00;;;13.20;99.90;;;;;;5035183;28;20083;-73
2023/04/15 08:29:05;;;;;;;4.70;2.05;;;13.20;99.90;;;;;;5040510;28;20037;-72
2023/04/15 08:31:31;;;;;;;5.50;1.98;;;13.20;99.90;;;;;;5064222;28;20040;-73
2023/04/15 08:33:58;;;;;;;4.88;1.90;;;13.20;99.90;;;;;;5034411;28;20029;-72
2023/04/15 08:36:23;;;;;;;5.85;1.85;;;13.30;99.90;;;;;;5036901;28;20047;-72
2023/04/15 08:38:49;;;;;;;3.83;1.60;;;13.30;99.90;;;;;;5037557;28;20021;-76
2023/04/15 08:41:22;;;;;;;4.60;2.10;;;13.20;99.90;;;;;;5038672;28;20053;-72
2023/04/15 08:44:11;;;;;;;3.88;2.00;;;13.20;99.90;;;;;;5035373;28;20081;-73
2023/04/15 08:46:38;;;;;;;5.22;1.90;;;13.10;99.90;;;;;;5032829;28;20033;-72
2023/04/15 08:49:04;;;;;;;4.40;2.10;;;13.10;99.90;;;;;;5042020;28;20033;-72
2023/04/15 08:51:31;;;;;;;3.97;2.17;;;13.10;99.90;;;;;;5035386;28;20685;-72
2023/04/15 08:53:57;;;;;;;5.38;2.47;;;13.20;99.90;;;;;;5041151;28;20040;-72
2023/04/15 08:56:29;;;;;;;5.25;2.30;;;13.10;99.90;;;;;;5033863;28;20091;-72
2023/04/15 08:58:56;;;;;;;7.47;2.58;;;13.20;99.90;;;;;;5027686;28;20044;-72
2023/04/15 09:01:22;;;;;;;8.00;1.67;;;13.40;99.90;;;;;;5038261;28;20477;-71
2023/04/15 09:03:49;;;;;;;3.80;1.80;;;13.30;99.90;;;;;;5037104;28;20045;-72
2023/04/15 09:06:16;;;;;;;5.72;1.67;;;13.40;99.90;;;;;;5035914;28;20048;-72
2023/04/15 09:08:51;;;;;;;3.72;1.63;;;13.50;99.80;;;;;;5036739;28;20037;-72
2023/04/15 09:11:23;;;;;;;4.57;1.88;;;13.60;99.90;;;;;;5032576;28;20045;-73
2023/04/15 09:13:49;;;;;;;3.08;1.38;;;13.60;99.70;;;;;;5035241;28;20140;-71
2023/04/15 09:16:15;;;;;;;3.67;1.48;;;13.60;99.10;;;;;;5038302;28;20119;-72
2023/04/15 09:18:40;;;;;;;3.67;1.33;;;13.50;99.50;;;;;;5034051;28;20406;-72
2023/04/15 09:21:17;;;;;;;3.33;1.50;;;13.50;99.70;;;;;;5033657;28;20037;-72
2023/04/15 09:23:55;;;;;;;2.72;1.45;;;13.50;99.90;;;;;;5037039;28;20033;-72
2023/04/15 09:26:30;;;;;;;4.38;1.70;;;13.70;99.90;;;;;;5037072;28;20482;-72
2023/04/15 09:29:03;;;;;;;3.08;1.35;;;13.80;99.90;;;;;;5035425;28;20040;-71
2023/04/15 09:31:30;;;;;;;3.80;1.10;;;14.00;99.70;;;;;;5034580;28;20134;-72
2023/04/15 09:33:56;;;;;;;3.10;0.88;;;14.10;98.60;;;;;;5035382;28;20033;-71
2023/04/15 09:36:21;;;;;;;3.67;1.20;;;14.20;98.30;;;;;;5037163;28;20037;-73
2023/04/15 09:38:57;;;;;;;4.20;1.20;;;14.20;97.30;;;;;;5035031;28;20520;-72
2023/04/15 09:41:24;;;;;;;2.88;1.25;;;14.20;97.30;;;;;;5032873;28;20443;-71
2023/04/15 09:43:50;;;;;;;10.13;1.27;;;14.30;98.00;;;;;;5034766;28;20501;-73
2023/04/15 09:46:16;;;;;;;3.10;1.00;;;14.30;97.70;;;;;;5032141;28;20520;-73
2023/04/15 09:48:42;;;;;;;4.93;1.20;;;14.40;97.80;;;;;;5036265;28;20028;-73
2023/04/15 09:51:07;;;;;;;5.05;1.42;;;14.40;97.70;;;;;;5032297;28;20029;-72
2023/04/15 09:53:35;;;;;;;3.97;1.10;;;14.40;97.10;;;;;;5032664;28;20046;-72
2023/04/15 09:56:01;;;;;;;3.03;1.13;;;14.40;97.30;;;;;;5034713;28;20025;-72
2023/04/15 09:58:28;;;;;;;4.32;1.17;;;14.40;96.60;;;;;;5031152;28;20052;-72
2023/04/15 10:00:56;;;;;;;3.95;0.98;;;14.50;96.90;;;;;;5032205;28;20030;-72
2023/04/15 10:03:30;;;;;;;2.80;1.25;;;14.40;96.20;;;;;;5031699;28;20029;-73
2023/04/15 10:05:58;;;;;;;3.17;1.27;;;14.30;96.70;;;;;;5030457;28;20033;-71
2023/04/15 10:08:26;;;;;;;4.88;1.10;;;14.20;97.10;;;;;;5033464;28;20041;-72
2023/04/15 10:10:53;;;;;;;1.23;0.68;;;14.30;97.30;;;;;;5029582;28;20390;-72
2023/04/15 10:13:23;;;;;;;0.55;0.45;;;14.20;97.60;;;;;;5039982;28;20029;-73
2023/04/15 10:16:01;;;;;;;3.38;0.40;;;14.40;98.20;;;;;;5030674;28;20606;-72
2023/04/15 10:18:31;;;;;;;2.47;0.50;;;14.20;97.90;;;;;;5029362;28;20045;-72
2023/04/15 10:20:59;;;;;;;3.83;0.63;;;14.30;98.60;;;;;;5034750;28;20132;-72
2023/04/15 10:23:28;;;;;;;1.63;0.43;;;14.40;98.30;;;;;;5031385;28;20064;-71
2023/04/15 10:25:54;;;;;;;3.38;0.70;;;14.40;98.10;;;;;;5030135;28;20048;-73
2023/04/15 10:28:21;;;;;;;0.95;0.60;;;14.20;98.10;;;;;;5030323;28;20144;-73
2023/04/15 10:30:48;;;;;;;1.20;0.70;;;14.20;98.40;;;;;;5029283;28;20056;-71
2023/04/15 10:33:18;;;;;;;1.10;0.50;;;14.10;98.20;;;;;;5038006;28;20033;-71
2023/04/15 10:35:46;;;;;;;2.08;0.90;;;14.00;98.80;;;;;;5030836;28;20037;-71
2023/04/15 10:38:31;;;;;;;1.60;0.70;;;14.00;98.90;;;;;;5030160;28;20512;-72
2023/04/15 10:41:25;;;;;;;1.25;0.70;;;13.90;99.30;;;;;;5033641;28;20481;-72
2023/04/15 10:43:52;;;;;;;2.38;0.95;;;13.80;99.50;;;;;;5064643;28;20025;-73
2023/04/15 10:46:37;;;;;;;2.92;1.15;;;13.80;99.90;;;;;;5031146;28;20040;-72
2023/04/15 10:49:25;;;;;;;7.47;1.58;;;13.90;99.90;;;;;;5032758;28;20030;-74
2023/04/15 10:51:56;;;;;;;3.95;1.17;;;13.90;99.90;;;;;;5062583;28;20090;-72
2023/04/15 10:54:25;;;;;;;1.92;0.80;;;14.00;99.90;;;;;;5035530;28;20118;-72
2023/04/15 10:57:02;;;;;;;1.02;0.73;;;13.90;99.90;;;;;;5032762;28;20748;-74
2023/04/15 11:00:05;;;;;;;5.18;1.55;;;13.90;99.90;;;;;;5039670;28;20658;-72
2023/04/15 11:03:07;;;;;;;3.20;1.17;;;13.70;99.90;;;;;;5039972;28;20083;-71
2023/04/15 11:05:52;;;;;;;2.60;1.30;;;13.80;99.90;;;;;;5030389;28;20527;-72
2023/04/15 11:08:18;;;;;;;2.30;1.20;;;13.80;99.90;;;;;;5037596;28;20536;-73
2023/04/15 11:10:44;;;;;;;3.50;1.52;;;13.70;99.90;;;;;;5036391;28;20064;-71
2023/04/15 11:13:10;;;;;;;3.20;1.35;;;13.80;99.90;;;;;;5042226;28;20069;-72
2023/04/15 11:15:40;;;;;;;1.95;0.88;;;13.60;99.90;;;;;;5035653;28;20041;-72
2023/04/15 11:18:09;;;;;;;3.80;1.85;;;13.50;99.90;;;;;;5037525;28;20043;-71
2023/04/15 11:20:35;;;;;;;3.95;1.23;;;13.40;99.90;;;;;;5038580;28;20051;-72
2023/04/15 11:23:05;;;;;;;2.42;1.10;;;13.50;99.90;;;;;;5039289;28;20095;-73
2023/04/15 11:25:32;;;;;;;3.55;1.75;;;13.60;99.90;;;;;;5035573;28;20044;-72
2023/04/15 11:27:59;;;;;;;3.80;1.48;;;13.60;99.90;;;;;;5035944;28;20170;-72
2023/04/15 11:30:27;;;;;;;3.90;1.60;;;13.60;99.90;;;;;;5035646;28;20045;-71
2023/04/15 11:32:58;;;;;;;5.10;1.45;;;13.70;99.90;;;;;;5035835;28;20044;-74
2023/04/15 11:35:23;;;;;;;4.18;1.90;;;13.60;99.90;;;;;;5039208;28;20507;-73
2023/04/15 11:37:49;;;;;;;2.33;1.38;;;13.40;99.90;;;;;;5036984;28;20022;-72
2023/04/15 11:40:16;;;;;;;6.53;1.48;;;13.60;99.90;;;;;;5039022;28;20037;-71
2023/04/15 11:42:43;;;;;;;5.80;1.52;;;13.50;99.90;;;;;;5035142;28;20038;-73
2023/04/15 11:45:14;;;;;;;2.13;1.10;;;13.60;99.90;;;;;;5035614;28;20073;-72
2023/04/15 11:47:42;;;;;;;;;;;13.50;99.90;;;;;;5034778;28;20029;-71
2023/04/15 11:50:20;;;;;;;2.92;0.90;;;13.40;99.90;;;;;;5037810;28;20557;-72
2023/04/15 11:52:53;;;;;;;1.58;0.90;;;13.50;99.90;;;;;;5037868;28;20532;-72
2023/04/15 11:55:23;;;;;;;1.95;0.80;;;13.60;99.90;;;;;;5033393;28;20045;-71
2023/04/15 11:58:09;;;;;;;3.42;1.45;;;13.40;99.90;;;;;;5040835;28;20040;-72
2023/04/15 12:00:36;;;;;;;2.33;0.85;;;13.50;99.90;;;;;;5037441;28;20036;-72
2023/04/15 12:03:21;;;;;;;1.40;0.70;;;13.60;99.90;;;;;;5036952;28;20073;-72
2023/04/15 12:06:09;;;;;;;2.83;0.75;;;13.70;99.90;;;;;;5037851;28;20035;-73
2023/04/15 12:09:06;;;;;;;2.08;1.20;;;13.70;99.90;;;;;;5040284;28;20043;-71
2023/04/15 12:11:39;;;;;;;6.78;0.85;;;13.30;99.90;;;;;;5041493;28;20029;-72
2023/04/15 12:14:12;;;;;;;1.83;0.70;;;13.20;99.90;;;;;;5038846;28;20811;-72
2023/04/15 12:16:43;;;;;;;1.48;0.75;;;13.30;99.90;;;;;;5035485;28;20055;-72
2023/04/15 12:19:11;;;;;;;1.52;0.70;;;13.20;99.90;;;;;;5040796;28;20067;-72
2023/04/15 12:21:39;;;;;;;3.05;0.80;;;13.30;99.90;;;;;;5042775;28;20053;-71
2023/04/15 12:24:11;;;;;;;3.50;1.02;;;13.30;99.90;;;;;;5041209;28;20033;-73
2023/04/15 12:26:54;;;;;;;2.15;1.23;;;13.10;99.90;;;;;;5040434;28;20041;-71
2023/04/15 12:29:25;;;;;;;7.07;1.30;;;13.10;99.90;;;;;;5037766;28;20049;-72
2023/04/15 12:31:51;;;;;;;;;;;13.20;99.90;;;;;;5035636;28;20701;-74
2023/04/15 12:34:17;;;;;;;2.50;0.90;;;13.10;99.90;;;;;;5040289;28;19920;-72
2023/04/15 12:36:45;;;;;;;1.92;0.95;;;13.10;99.90;;;;;;5040978;28;20124;-71
2023/04/15 12:39:12;;;;;;;3.38;0.73;;;13.00;99.90;;;;;;5025941;28;20100;-72
2023/04/15 12:41:37;;;;;;;2.30;0.88;;;13.00;99.90;;;;;;5042046;28;20064;-72
2023/04/15 12:44:06;;;;;;;4.15;1.55;;;12.90;99.90;;;;;;5037048;28;20124;-73
2023/04/15 12:46:34;;;;;;;1.55;0.77;;;12.90;99.90;;;;;;5046219;28;20025;-72
2023/04/15 12:49:00;;;;;;;4.32;0.95;;;13.00;99.90;;;;;;5043169;28;20091;-72
2023/04/15 12:51:26;;;;;;;1.67;0.73;;;13.10;99.90;;;;;;5041166;28;20045;-72
2023/04/15 12:53:54;;;;;;;1.90;0.70;;;13.00;99.90;;;;;;5042740;28;20037;-73
2023/04/15 12:56:20;;;;;;;3.83;0.95;;;13.20;99.90;;;;;;5037492;28;20117;-71